createdAt,value
2023-05-25T00:01:59.763Z,99813.97
2023-05-25T00:04:30.452Z,99816.69
2023-05-25T00:06:58.089Z,99813.16
2023-05-25T00:09:25.845Z,99807.69
2023-05-25T00:11:53.573Z,99813.97
2023-05-25T00:14:21.372Z,99816.97
2023-05-25T00:16:49.015Z,99811.50
2023-05-25T00:19:18.598Z,99820.53
2023-05-25T00:21:48.424Z,99820.53
2023-05-25T00:24:15.989Z,99816.13
2023-05-25T00:26:43.737Z,99816.13
2023-05-25T00:29:11.199Z,99810.87
2023-05-25T00:31:39.279Z,99811.97
2023-05-25T00:34:07.094Z,99808.41
2023-05-25T00:36:34.542Z,99811.13
2023-05-25T00:39:01.986Z,99810.28
2023-05-25T00:41:29.796Z,99819.56
2023-05-25T00:43:57.341Z,99820.38
2023-05-25T00:46:25.255Z,99818.69
2023-05-25T00:48:53.377Z,99825.25
2023-05-25T00:51:21.249Z,99821.44
2023-05-25T00:53:48.686Z,99823.34
2023-05-25T00:56:23.113Z,99834.28
2023-05-25T00:58:53.035Z,99827.97
2023-05-25T01:01:22.084Z,99831.53
2023-05-25T01:03:54.316Z,99826.91
2023-05-25T01:06:22.935Z,99824.16
2023-05-25T01:08:54.402Z,99822.50
2023-05-25T01:11:26.704Z,99829.62
2023-05-25T01:13:54.524Z,99827.97
2023-05-25T01:16:22.507Z,99840.56
2023-05-25T01:18:52.656Z,99835.97
2023-05-25T01:21:42.137Z,99838.91
2023-05-25T01:24:30.914Z,99836.16
2023-05-25T01:27:02.142Z,99840.56
2023-05-25T01:29:30.047Z,99835.34
2023-05-25T01:31:57.561Z,99839.16
2023-05-25T01:34:25.154Z,99842.72
2023-05-25T01:36:52.870Z,99841.06
2023-05-25T01:39:23.808Z,99841.06
2023-05-25T01:41:51.287Z,99844.88
2023-05-25T01:44:18.973Z,99840.25
2023-05-25T01:46:46.626Z,99840.25
2023-05-25T01:49:43.714Z,99838.56
2023-05-25T01:52:28.800Z,99846.28
2023-05-25T01:55:11.751Z,99846.53
2023-05-25T01:57:42.887Z,99850.34
2023-05-25T02:00:11.104Z,99850.81
2023-05-25T02:02:41.989Z,99851.63
2023-05-25T02:05:11.096Z,99856.28
2023-05-25T02:07:39.007Z,99845.09
2023-05-25T02:10:06.890Z,99845.34
2023-05-25T02:12:34.656Z,99845.34
2023-05-25T02:15:02.177Z,99853.53
2023-05-25T02:17:31.471Z,99846.41
2023-05-25T02:19:59.481Z,99849.97
2023-05-25T02:22:27.162Z,99854.63
2023-05-25T02:24:54.622Z,99847.47
2023-05-25T02:27:23.096Z,99854.00
2023-05-25T02:29:50.756Z,99860.31
2023-05-25T02:32:18.193Z,99854.84
2023-05-25T02:34:47.072Z,99854.84
2023-05-25T02:37:14.639Z,99864.13
2023-05-25T02:39:42.474Z,99854.00
2023-05-25T02:42:10.214Z,99855.91
2023-05-25T02:44:37.643Z,99866.84
2023-05-25T02:47:06.787Z,99863.28
2023-05-25T02:49:34.887Z,99865.19
2023-05-25T02:52:02.441Z,99871.47
2023-05-25T02:54:29.914Z,99865.19
2023-05-25T02:56:58.423Z,99877.78
2023-05-25T02:59:26.046Z,99863.53
2023-05-25T03:01:53.506Z,99875.28
2023-05-25T03:04:21.986Z,99881.84
2023-05-25T03:06:49.408Z,99881.84
2023-05-25T03:09:17.117Z,99880.16
2023-05-25T03:11:45.810Z,99888.34
2023-05-25T03:14:13.622Z,99882.06
2023-05-25T03:16:41.855Z,99879.31
2023-05-25T03:19:10.682Z,99893.81
2023-05-25T03:21:38.540Z,99890.03
2023-05-25T03:24:06.717Z,99890.25
2023-05-25T03:26:34.813Z,99892.16
2023-05-25T03:29:03.045Z,99892.97
2023-05-25T03:31:30.520Z,99889.41
2023-05-25T03:33:58.382Z,99890.25
2023-05-25T03:36:30.891Z,99886.69
2023-05-25T03:38:58.700Z,99889.41
2023-05-25T03:41:27.030Z,99889.41
2023-05-25T03:43:54.562Z,99897.62
2023-05-25T03:46:22.333Z,99888.59
2023-05-25T03:48:49.779Z,99894.06
2023-05-25T03:51:17.213Z,99901.19
2023-05-25T03:53:45.832Z,99897.62
2023-05-25T03:56:13.304Z,99894.63
2023-05-25T03:58:40.781Z,99900.09
2023-05-25T04:01:10.373Z,99906.44
2023-05-25T04:03:38.257Z,99899.06
2023-05-25T04:06:05.982Z,99913.53
2023-05-25T04:08:34.053Z,99911.66
2023-05-25T04:11:02.121Z,99918.75
2023-05-25T04:13:29.534Z,99919.59
2023-05-25T04:15:57.069Z,99913.31
2023-05-25T04:18:26.121Z,99919.59
2023-05-25T04:20:55.551Z,99914.12
2023-05-25T04:23:23.396Z,99922.31
2023-05-25T04:25:51.905Z,99923.97
2023-05-25T04:28:19.514Z,99930.31
2023-05-25T04:30:48.091Z,99931.13
2023-05-25T04:33:18.041Z,99925.66
2023-05-25T04:35:47.062Z,99936.59
2023-05-25T04:38:17.669Z,99931.13
2023-05-25T04:40:46.505Z,99930.31
2023-05-25T04:43:18.121Z,99931.13
2023-05-25T04:45:47.397Z,99923.97
2023-05-25T04:48:15.319Z,99928.41
2023-05-25T04:50:43.124Z,99927.56
2023-05-25T04:53:11.053Z,99931.13
2023-05-25T04:55:38.623Z,99935.78
2023-05-25T04:58:06.136Z,99926.72
2023-05-25T05:00:34.526Z,99931.13
2023-05-25T05:03:02.716Z,99932.78
2023-05-25T05:05:30.857Z,99939.34
2023-05-25T05:07:59.999Z,99942.06
2023-05-25T05:10:27.796Z,99941.00
2023-05-25T05:12:56.036Z,99935.78
2023-05-25T05:15:23.945Z,99942.88
2023-05-25T05:17:51.596Z,99939.34
2023-05-25T05:20:19.314Z,99931.13
2023-05-25T05:22:47.709Z,99942.06
2023-05-25T05:25:15.291Z,99941.81
2023-05-25T05:27:42.761Z,99949.44
2023-05-25T05:30:12.102Z,99942.06
2023-05-25T05:32:41.204Z,99941.22
2023-05-25T05:35:09.457Z,99943.72
2023-05-25T05:37:38.611Z,99942.06
2023-05-25T05:40:07.161Z,99941.81
2023-05-25T05:42:34.913Z,99950.25
2023-05-25T05:45:02.905Z,99950.25
2023-05-25T05:47:31.166Z,99940.16
2023-05-25T05:49:58.805Z,99951.91
2023-05-25T05:52:26.645Z,99946.69
2023-05-25T05:54:54.264Z,99949.44
2023-05-25T05:57:22.005Z,99953.00
2023-05-25T05:59:49.840Z,99950.25
2023-05-25T06:02:17.534Z,99949.44
2023-05-25T06:04:45.677Z,99950.25
2023-05-25T06:07:13.323Z,99955.72
2023-05-25T06:09:41.448Z,99957.63
2023-05-25T06:12:09.475Z,99956.78
2023-05-25T06:14:36.991Z,99962.25
2023-05-25T06:17:04.651Z,99961.19
2023-05-25T06:19:32.448Z,99972.13
2023-05-25T06:22:00.088Z,99966.03
2023-05-25T06:24:27.567Z,99965.22
2023-05-25T06:26:55.458Z,99967.94
2023-05-25T06:29:22.914Z,99967.94
2023-05-25T06:31:50.435Z,99963.31
2023-05-25T06:34:18.508Z,99970.69
2023-05-25T06:36:46.867Z,99968.78
2023-05-25T06:39:14.844Z,99971.50
2023-05-25T06:41:43.676Z,99964.38
2023-05-25T06:44:11.158Z,99963.31
2023-05-25T06:46:40.208Z,99973.41
2023-05-25T06:49:09.182Z,99969.84
2023-05-25T06:51:37.275Z,99972.84
2023-05-25T06:54:04.735Z,99973.88
2023-05-25T06:56:32.470Z,99969.50
2023-05-25T06:59:00.038Z,99974.12
2023-05-25T07:01:28.001Z,99980.41
2023-05-25T07:03:55.867Z,99978.75
2023-05-25T07:06:23.347Z,99978.75
2023-05-25T07:08:50.871Z,99983.41
2023-05-25T07:11:22.002Z,99981.75
2023-05-25T07:13:49.498Z,99986.13
2023-05-25T07:16:17.031Z,99988.03
2023-05-25T07:18:44.810Z,99987.22
2023-05-25T07:21:12.330Z,99986.97
2023-05-25T07:23:42.826Z,99990.75
2023-05-25T07:26:10.569Z,99994.31
2023-05-25T07:28:38.077Z,99988.88
2023-05-25T07:31:05.583Z,99989.69
2023-05-25T07:33:33.406Z,99987.78
2023-05-25T07:36:00.840Z,99986.13
2023-05-25T07:38:28.318Z,99982.31
2023-05-25T07:40:56.264Z,99993.00
2023-05-25T07:43:24.820Z,99987.53
2023-05-25T07:45:52.274Z,99992.19
2023-05-25T07:48:20.000Z,99998.47
2023-05-25T07:50:47.489Z,99998.25
2023-05-25T07:53:14.969Z,99995.53
2023-05-25T07:55:43.084Z,99999.09
2023-05-25T07:58:10.958Z,99995.53
2023-05-25T08:00:38.449Z,99997.19
2023-05-25T08:03:06.339Z,99991.72
2023-05-25T08:05:33.891Z,99988.72
2023-05-25T08:08:01.665Z,99992.28
2023-05-25T08:10:32.341Z,99986.00
2023-05-25T08:12:59.926Z,99994.00
2023-05-25T08:15:27.429Z,99998.38
2023-05-25T08:17:56.674Z,99988.53
2023-05-25T08:20:25.965Z,99994.81
2023-05-25T08:22:53.703Z,99998.38
2023-05-25T08:25:21.968Z,100001.94
2023-05-25T08:27:49.460Z,100000.03
2023-05-25T08:30:16.939Z,99994.56
2023-05-25T08:32:45.227Z,99996.47
2023-05-25T08:35:14.315Z,99999.22
2023-05-25T08:37:43.476Z,99995.41
2023-05-25T08:40:15.257Z,99996.84
2023-05-25T08:42:45.814Z,99995.19
2023-05-25T08:45:22.986Z,99998.97
2023-05-25T08:48:01.082Z,100004.22
2023-05-25T08:50:28.872Z,99998.75
2023-05-25T08:52:56.363Z,100002.31
2023-05-25T08:55:23.894Z,100005.03
2023-05-25T08:57:56.012Z,100003.13
2023-05-25T09:00:29.276Z,100002.87
2023-05-25T09:03:25.482Z,100004.78
2023-05-25T09:05:53.000Z,100000.75
2023-05-25T09:08:23.037Z,99997.19
2023-05-25T09:10:50.541Z,99995.28
2023-05-25T09:13:22.046Z,99999.06
2023-05-25T09:15:50.930Z,99998.03
2023-05-25T09:18:18.480Z,100001.38
2023-05-25T09:20:47.849Z,99991.53
2023-05-25T09:23:16.176Z,99995.28
2023-05-25T09:25:44.635Z,100000.53
2023-05-25T09:30:42.902Z,99995.66
2023-05-25T09:33:13.617Z,99996.53
2023-05-25T09:35:41.160Z,100000.91
2023-05-25T09:38:09.168Z,100000.09
2023-05-25T09:40:38.042Z,100000.91
2023-05-25T09:43:05.540Z,100002.81
2023-05-25T09:45:33.334Z,100009.94
2023-05-25T09:48:01.144Z,100004.72
2023-05-25T09:50:29.368Z,100000.09
2023-05-25T09:52:59.871Z,100007.22
2023-05-25T09:55:40.347Z,100003.41
2023-05-25T09:58:18.207Z,100007.78
2023-05-25T10:00:46.459Z,100006.97
2023-05-25T10:03:15.853Z,99999.59
2023-05-25T10:05:43.346Z,100011.13
2023-05-25T10:08:10.909Z,100003.97
2023-05-25T10:10:39.104Z,100009.44
2023-05-25T10:13:06.618Z,100011.72
2023-05-25T10:15:34.074Z,100001.84
2023-05-25T10:18:01.952Z,100001.03
2023-05-25T10:20:30.524Z,100006.50
2023-05-25T10:23:13.317Z,100004.84
2023-05-25T10:25:47.219Z,99995.56
2023-05-25T10:28:17.630Z,99991.19
2023-05-25T10:30:45.758Z,99982.97
2023-05-25T10:33:13.311Z,99990.09
2023-05-25T10:35:56.125Z,99995.31
2023-05-25T10:38:29.138Z,99982.72
2023-05-25T10:40:56.602Z,99976.53
2023-05-25T10:43:24.049Z,99984.13
2023-05-25T10:45:51.788Z,99976.19
2023-05-25T10:48:19.265Z,99975.09
2023-05-25T10:50:52.579Z,99979.53
2023-05-25T10:53:21.209Z,99982.84
2023-05-25T10:55:51.959Z,99981.75
2023-05-25T10:58:21.381Z,99974.62
2023-05-25T11:01:04.103Z,99976.28
2023-05-25T11:03:44.038Z,99986.75
2023-05-25T11:06:12.467Z,99977.72
2023-05-25T11:08:55.391Z,99972.72
2023-05-25T11:11:26.810Z,99965.13
2023-05-25T11:13:54.584Z,99977.13
2023-05-25T11:16:35.972Z,99970.34
2023-05-25T11:19:04.230Z,99965.72
2023-05-25T11:21:35.030Z,99960.25
2023-05-25T11:24:04.078Z,99965.72
2023-05-25T11:26:33.339Z,99961.91
2023-05-25T11:29:01.997Z,99961.69
2023-05-25T11:31:36.031Z,99954.53
2023-05-25T11:34:06.762Z,99951.59
2023-05-25T11:36:36.975Z,99952.41
2023-05-25T11:39:11.635Z,99953.81
2023-05-25T11:41:58.636Z,99949.41
2023-05-25T11:44:28.448Z,99951.09
2023-05-25T11:47:01.727Z,99943.94
2023-05-25T11:49:29.470Z,99943.94
2023-05-25T11:51:57.501Z,99937.19
2023-05-25T11:54:27.907Z,99935.28
2023-05-25T11:56:59.333Z,99935.28
2023-05-25T11:59:29.802Z,99922.19
2023-05-25T12:01:59.882Z,99920.06
2023-05-25T12:04:28.346Z,99920.88
2023-05-25T12:07:02.544Z,99922.53
2023-05-25T12:09:30.484Z,99926.09
2023-05-25T12:11:58.050Z,99920.62
2023-05-25T12:14:25.833Z,99903.66
2023-05-25T12:16:53.716Z,99909.69
2023-05-25T12:19:21.586Z,99912.19
2023-05-25T12:21:51.383Z,99914.09
2023-05-25T12:24:19.195Z,99906.97
2023-05-25T12:26:50.690Z,99903.97
2023-05-25T12:29:18.214Z,99909.44
2023-05-25T12:31:45.944Z,99908.41
2023-05-25T12:34:17.650Z,99904.84
2023-05-25T12:36:45.015Z,99911.97
2023-05-25T12:39:16.583Z,99907.06
2023-05-25T12:41:47.994Z,99903.97
2023-05-25T12:44:23.118Z,99901.84
2023-05-25T12:46:54.472Z,99893.03
2023-05-25T12:49:34.838Z,99902.31
2023-05-25T12:52:02.818Z,99896.38
2023-05-25T12:54:44.923Z,99892.19
2023-05-25T12:57:16.519Z,99891.84
2023-05-25T12:59:45.464Z,99901.59
2023-05-25T13:02:13.848Z,99889.81
2023-05-25T13:04:41.685Z,99883.53
2023-05-25T13:07:09.975Z,99887.09
2023-05-25T13:09:37.708Z,99883.53
2023-05-25T13:12:06.252Z,99881.16
2023-05-25T13:14:34.028Z,99886.00
2023-05-25T13:17:01.539Z,99878.41
2023-05-25T13:19:29.097Z,99876.72
2023-05-25T13:21:56.935Z,99875.91
2023-05-25T13:24:24.725Z,99878.41
2023-05-25T13:26:52.154Z,99872.94
2023-05-25T13:29:21.683Z,99867.47
2023-05-25T13:31:49.223Z,99870.22
2023-05-25T13:34:17.730Z,99866.41
2023-05-25T13:36:45.490Z,99863.91
2023-05-25T13:39:13.863Z,99860.09
2023-05-25T13:41:41.819Z,99856.75
2023-05-25T13:44:11.189Z,99854.63
2023-05-25T13:46:39.006Z,99856.53
2023-05-25T13:49:06.602Z,99850.00
2023-05-25T13:51:35.774Z,99850.00
2023-05-25T13:54:03.336Z,99842.03
2023-05-25T13:56:31.296Z,99831.94
2023-05-25T13:58:58.982Z,99829.66
2023-05-25T14:01:30.549Z,99835.97
2023-05-25T14:03:59.928Z,99826.69
2023-05-25T14:06:27.576Z,99826.47
2023-05-25T14:08:55.015Z,99815.75
2023-05-25T14:11:28.141Z,99826.47
2023-05-25T14:13:56.297Z,99822.62
2023-05-25T14:16:24.035Z,99816.34
2023-05-25T14:18:51.580Z,99815.25
2023-05-25T14:21:19.219Z,99815.25
2023-05-25T14:23:46.965Z,99816.09
2023-05-25T14:26:14.418Z,99821.31
2023-05-25T14:28:42.294Z,99813.97
2023-05-25T14:31:10.155Z,99811.78
2023-05-25T14:33:37.684Z,99810.13
2023-05-25T14:36:05.735Z,99815.59
2023-05-25T14:38:33.426Z,99807.16
2023-05-25T14:41:01.401Z,99811.78
2023-05-25T14:43:28.920Z,99806.56
2023-05-25T14:45:56.671Z,99805.50
2023-05-25T14:48:25.935Z,99806.31
2023-05-25T14:50:53.560Z,99798.94
2023-05-25T14:53:21.338Z,99805.00
2023-05-25T14:55:49.212Z,99798.94
2023-05-25T14:58:16.699Z,99803.34
2023-05-25T15:00:44.850Z,99799.53
2023-05-25T15:03:12.373Z,99800.38
2023-05-25T15:05:39.979Z,99798.94
2023-05-25T15:08:07.854Z,99793.47
2023-05-25T15:10:35.686Z,99799.78
2023-05-25T15:13:03.276Z,99797.03
2023-05-25T15:15:31.264Z,99796.22
2023-05-25T15:17:58.897Z,99795.37
2023-05-25T15:20:26.553Z,99797.88
2023-05-25T15:22:55.060Z,99800.94
2023-05-25T15:25:34.874Z,99805.84
2023-05-25T15:28:03.933Z,99797.94
2023-05-25T15:30:51.429Z,99799.62
2023-05-25T15:33:19.442Z,99800.69
2023-05-25T15:35:47.202Z,99799.84
2023-05-25T15:38:15.308Z,99799.62
2023-05-25T15:40:43.367Z,99796.91
2023-05-25T15:43:11.000Z,99799.03
2023-05-25T15:45:38.506Z,99802.59
2023-05-25T15:48:10.209Z,99796.91
2023-05-25T15:50:39.565Z,99796.31
2023-05-25T15:53:07.360Z,99794.38
2023-05-25T15:55:34.812Z,99793.56
2023-05-25T15:58:02.271Z,99795.47
2023-05-25T16:00:30.057Z,99787.53
2023-05-25T16:02:58.287Z,99793.34
2023-05-25T16:05:25.853Z,99793.81
2023-05-25T16:07:53.279Z,99797.38
2023-05-25T16:10:21.039Z,99792.75
2023-05-25T16:12:48.576Z,99801.19
2023-05-25T16:15:16.541Z,99802.03
2023-05-25T16:17:44.278Z,99805.84
2023-05-25T16:20:12.209Z,99800.38
2023-05-25T16:22:39.711Z,99800.38
2023-05-25T16:25:07.889Z,99796.56
2023-05-25T16:27:35.454Z,99789.44
2023-05-25T16:30:03.039Z,99793.81
2023-05-25T16:32:31.117Z,99795.94
2023-05-25T16:34:58.606Z,99801.78
2023-05-25T16:37:26.108Z,99800.38
2023-05-25T16:39:55.409Z,99800.38
2023-05-25T16:42:25.062Z,99798.47
2023-05-25T16:44:52.486Z,99802.84
2023-05-25T16:47:20.411Z,99806.41
2023-05-25T16:49:47.877Z,99813.78
2023-05-25T16:52:15.470Z,99811.06
2023-05-25T16:54:43.274Z,99808.31
2023-05-25T16:57:12.092Z,99809.41
2023-05-25T16:59:39.828Z,99811.88
2023-05-25T17:02:07.655Z,99812.97
2023-05-25T17:04:35.121Z,99807.25
2023-05-25T17:07:02.629Z,99803.69
2023-05-25T17:09:30.364Z,99809.16
2023-05-25T17:11:59.680Z,99808.06
2023-05-25T17:14:27.482Z,99806.16
2023-05-25T17:16:55.378Z,99804.84
2023-05-25T17:19:22.892Z,99799.62
2023-05-25T17:21:50.553Z,99805.94
2023-05-25T17:24:18.280Z,99803.19
2023-05-25T17:26:46.570Z,99807.84
2023-05-25T17:29:15.299Z,99815.44
2023-05-25T17:31:43.121Z,99814.12
2023-05-25T17:34:10.568Z,99813.31
2023-05-25T17:36:38.013Z,99811.41
2023-05-25T17:39:06.026Z,99811.41
2023-05-25T17:41:33.511Z,99807.59
2023-05-25T17:44:01.026Z,99806.16
2023-05-25T17:46:29.025Z,99809.97
2023-05-25T17:48:56.833Z,99809.97
2023-05-25T17:51:24.300Z,99807.25
2023-05-25T17:53:51.977Z,99817.34
2023-05-25T17:56:19.406Z,99813.78
2023-05-25T17:58:47.926Z,99819.25
2023-05-25T18:01:16.002Z,99816.88
2023-05-25T18:03:43.947Z,99807.84
2023-05-25T18:06:11.523Z,99813.31
2023-05-25T18:08:38.963Z,99807.84
2023-05-25T18:11:06.730Z,99811.63
2023-05-25T18:13:34.209Z,99816.28
2023-05-25T18:16:01.701Z,99812.50
2023-05-25T18:18:31.789Z,99810.81
2023-05-25T18:20:59.439Z,99820.69
2023-05-25T18:23:26.954Z,99817.09
2023-05-25T18:25:54.930Z,99821.53
2023-05-25T18:28:23.554Z,99830.56
2023-05-25T18:30:51.075Z,99834.37
2023-05-25T18:33:18.882Z,99831.63
2023-05-25T18:35:46.758Z,99836.25
2023-05-25T18:38:14.334Z,99841.50
2023-05-25T18:40:42.128Z,99840.66
2023-05-25T18:43:09.863Z,99845.06
2023-05-25T18:45:37.348Z,99836.84
2023-05-25T18:48:07.598Z,99848.63
2023-05-25T18:50:37.651Z,99855.75
2023-05-25T18:53:09.901Z,99851.94
2023-05-25T18:55:37.721Z,99860.12
2023-05-25T18:58:06.523Z,99863.72
2023-05-25T19:00:34.081Z,99869.19
2023-05-25T19:03:01.702Z,99877.16
2023-05-25T19:05:29.538Z,99882.38
2023-05-25T19:07:59.543Z,99879.63
2023-05-25T19:10:27.655Z,99878.56
2023-05-25T19:12:55.570Z,99879.41
2023-05-25T19:15:23.078Z,99888.44
2023-05-25T19:17:50.799Z,99883.78
2023-05-25T19:20:18.830Z,99886.53
2023-05-25T19:22:46.446Z,99883.78
2023-05-25T19:25:14.587Z,99889.28
2023-05-25T19:27:42.456Z,99886.53
2023-05-25T19:30:10.192Z,99889.28
2023-05-25T19:32:37.716Z,99889.28
2023-05-25T19:35:05.895Z,99889.28
2023-05-25T19:37:33.402Z,99882.72
2023-05-25T19:40:00.860Z,99892.84
2023-05-25T19:42:28.756Z,99891.75
2023-05-25T19:44:56.255Z,99892.56
2023-05-25T19:47:23.745Z,99895.31
2023-05-25T19:49:52.029Z,99899.12
2023-05-25T19:52:19.468Z,99895.31
2023-05-25T19:54:46.955Z,99887.97
2023-05-25T19:57:14.752Z,99893.66
2023-05-25T19:59:42.484Z,99891.75
2023-05-25T20:02:09.965Z,99892.56
2023-05-25T20:04:41.046Z,99896.19
2023-05-25T20:07:08.780Z,99897.00
2023-05-25T20:09:38.541Z,99903.34
2023-05-25T20:12:06.785Z,99898.91
2023-05-25T20:14:34.337Z,99897.84
2023-05-25T20:17:01.858Z,99903.34
2023-05-25T20:19:29.749Z,99905.00
2023-05-25T20:21:58.021Z,99894.03
2023-05-25T20:24:25.633Z,99895.13
2023-05-25T20:26:56.767Z,99898.69
2023-05-25T20:29:25.131Z,99899.75
2023-05-25T20:31:56.592Z,99900.59
2023-05-25T20:34:24.177Z,99898.91
2023-05-25T20:36:51.742Z,99897.00
2023-05-25T20:39:19.660Z,99898.91
2023-05-25T20:41:47.097Z,99901.66
2023-05-25T20:44:17.966Z,99898.91
2023-05-25T20:46:45.919Z,99901.66
2023-05-25T20:49:13.828Z,99900.78
2023-05-25T20:51:42.148Z,99891.75
2023-05-25T20:54:09.966Z,99897.22
2023-05-25T20:56:37.456Z,99895.56
2023-05-25T20:59:04.918Z,99900.22
2023-05-25T21:01:32.714Z,99897.47
2023-05-25T21:04:00.425Z,99901.03
2023-05-25T21:06:28.039Z,99899.38
2023-05-25T21:08:55.816Z,99901.03
2023-05-25T21:11:23.441Z,99901.28
2023-05-25T21:13:51.337Z,99902.13
2023-05-25T21:16:19.117Z,99894.13
2023-05-25T21:18:46.673Z,99900.44
2023-05-25T21:21:15.834Z,99894.97
2023-05-25T21:23:43.553Z,99894.13
2023-05-25T21:26:11.024Z,99894.13
2023-05-25T21:28:38.464Z,99890.56
2023-05-25T21:31:06.235Z,99899.88
2023-05-25T21:33:36.090Z,99894.97
2023-05-25T21:36:04.004Z,99899.03
2023-05-25T21:38:31.790Z,99895.47
2023-05-25T21:40:59.288Z,99902.84
2023-05-25T21:43:27.435Z,99904.75
2023-05-25T21:45:55.353Z,99906.41
2023-05-25T21:48:22.779Z,99914.03
2023-05-25T21:50:53.324Z,99914.03
2023-05-25T21:53:21.121Z,99913.44
2023-05-25T21:55:48.575Z,99909.63
2023-05-25T21:58:17.445Z,99909.06
2023-05-25T22:00:45.416Z,99912.84
2023-05-25T22:03:13.538Z,99910.72
2023-05-25T22:05:41.062Z,99916.44
2023-05-25T22:08:09.021Z,99918.56
2023-05-25T22:10:36.931Z,99913.09
2023-05-25T22:13:05.181Z,99915.81
2023-05-25T22:15:32.882Z,99917.72
2023-05-25T22:18:01.482Z,99913.34
2023-05-25T22:20:29.166Z,99910.59
2023-05-25T22:22:56.870Z,99913.56
2023-05-25T22:25:25.213Z,99919.91
2023-05-25T22:27:52.679Z,99919.91
2023-05-25T22:30:20.384Z,99910.00
2023-05-25T22:32:48.260Z,99912.16
2023-05-25T22:35:17.022Z,99913.00
2023-05-25T22:37:44.590Z,99913.81
2023-05-25T22:40:12.705Z,99905.88
2023-05-25T22:42:40.344Z,99903.13
2023-05-25T22:45:08.283Z,99907.78
2023-05-25T22:47:36.628Z,99898.75
2023-05-25T22:50:04.188Z,99908.00
2023-05-25T22:52:31.672Z,99914.28
2023-05-25T22:54:59.375Z,99906.09
2023-05-25T22:57:26.823Z,99907.16
2023-05-25T22:59:54.250Z,99908.25
2023-05-25T23:02:21.946Z,99906.34
2023-05-25T23:04:49.459Z,99904.44
2023-05-25T23:07:16.947Z,99900.03
2023-05-25T23:09:44.694Z,99896.47
2023-05-25T23:12:12.125Z,99899.22
2023-05-25T23:14:39.539Z,99894.81
2023-05-25T23:17:07.232Z,99897.56
2023-05-25T23:19:35.733Z,99899.47
2023-05-25T23:22:03.215Z,99899.47
2023-05-25T23:24:30.972Z,99899.47
2023-05-25T23:26:58.426Z,99895.88
2023-05-25T23:29:25.966Z,99897.78
2023-05-25T23:31:53.744Z,99899.47
2023-05-25T23:34:21.443Z,99897.78
2023-05-25T23:36:48.897Z,99888.53
2023-05-25T23:39:16.627Z,99890.66
2023-05-25T23:41:44.072Z,99889.56
2023-05-25T23:44:11.555Z,99890.66
2023-05-25T23:46:39.321Z,99894.47
2023-05-25T23:49:06.812Z,99892.81
2023-05-25T23:51:34.240Z,99893.66
2023-05-25T23:54:01.962Z,99897.47
2023-05-25T23:56:29.428Z,99888.44
2023-05-25T23:58:57.040Z,99895.78
